Terminal Aerodrome Forecast
Issued by NWS

Home | Current Version | Previous Version | Text Only | Print | Product List | Glossary On
Versions: 1 2 3 4 5 6 7 8 9 10 11 12 13 14
000
FTUS43 KILX 291100
TAFBMI
TAF
KBMI 291130Z 2912/3012 18016G22KT P6SM BKN200
     FM291500 18025G35KT 6SM SHRA BKN035
     FM292200 22018G25KT P6SM BKN040
     FM300400 30012KT P6SM SCT050=

USA.gov is the U.S. government's official web portal to all federal, state and local government web resources and services.